sensor_id;sensor_type;location;lat;lon;timestamp;temperature;humidity
37310;DHT22;23195;47.744;7.358;2023-03-20T00:01:16;8.10;99.90
37310;DHT22;23195;47.744;7.358;2023-03-20T00:03:42;7.90;99.90
37310;DHT22;23195;47.744;7.358;2023-03-20T00:06:15;7.90;99.90
37310;DHT22;23195;47.744;7.358;2023-03-20T00:08:42;7.80;99.90
37310;DHT22;23195;47.744;7.358;2023-03-20T00:11:31;7.80;99.90
37310;DHT22;23195;47.744;7.358;2023-03-20T00:14:12;7.70;99.90
37310;DHT22;23195;47.744;7.358;2023-03-20T00:16:41;7.70;99.90
37310;DHT22;23195;47.744;7.358;2023-03-20T00:19:22;7.60;99.90
37310;DHT22;23195;47.744;7.358;2023-03-20T00:21:49;7.50;99.90
37310;DHT22;23195;47.744;7.358;2023-03-20T00:24:16;7.50;99.90
37310;DHT22;23195;47.744;7.358;2023-03-20T00:26:43;7.40;99.90
37310;DHT22;23195;47.744;7.358;2023-03-20T00:29:18;7.40;99.90
37310;DHT22;23195;47.744;7.358;2023-03-20T00:31:46;7.40;99.90
37310;DHT22;23195;47.744;7.358;2023-03-20T00:34:17;7.40;99.90
37310;DHT22;23195;47.744;7.358;2023-03-20T00:36:44;7.30;99.90
37310;DHT22;23195;47.744;7.358;2023-03-20T00:39:10;7.40;99.90
37310;DHT22;23195;47.744;7.358;2023-03-20T00:41:42;7.30;99.90
37310;DHT22;23195;47.744;7.358;2023-03-20T00:44:19;7.30;99.90
37310;DHT22;23195;47.744;7.358;2023-03-20T00:46:48;7.30;99.90
37310;DHT22;23195;47.744;7.358;2023-03-20T00:49:15;7.20;99.90
37310;DHT22;23195;47.744;7.358;2023-03-20T00:51:40;7.20;99.90
37310;DHT22;23195;47.744;7.358;2023-03-20T00:54:14;7.20;99.90
37310;DHT22;23195;47.744;7.358;2023-03-20T00:57:11;7.20;99.90
37310;DHT22;23195;47.744;7.358;2023-03-20T00:59:44;7.20;99.90
37310;DHT22;23195;47.744;7.358;2023-03-20T01:02:13;7.20;99.90
37310;DHT22;23195;47.744;7.358;2023-03-20T01:04:41;7.20;99.90
37310;DHT22;23195;47.744;7.358;2023-03-20T01:07:11;7.20;99.90
37310;DHT22;23195;47.744;7.358;2023-03-20T01:09:38;7.20;99.90
37310;DHT22;23195;47.744;7.358;2023-03-20T01:12:05;7.20;99.90
37310;DHT22;23195;47.744;7.358;2023-03-20T01:14:32;7.20;99.90
37310;DHT22;23195;47.744;7.358;2023-03-20T01:17:01;7.10;99.90
37310;DHT22;23195;47.744;7.358;2023-03-20T01:19:27;7.20;99.90
37310;DHT22;23195;47.744;7.358;2023-03-20T01:21:53;7.10;99.90
37310;DHT22;23195;47.744;7.358;2023-03-20T01:24:19;7.10;99.90
37310;DHT22;23195;47.744;7.358;2023-03-20T01:26:48;7.10;99.90
37310;DHT22;23195;47.744;7.358;2023-03-20T01:29:24;7.10;99.90
37310;DHT22;23195;47.744;7.358;2023-03-20T01:31:52;7.10;99.90
37310;DHT22;23195;47.744;7.358;2023-03-20T01:34:18;7.10;99.90
37310;DHT22;23195;47.744;7.358;2023-03-20T01:36:57;7.10;99.90
37310;DHT22;23195;47.744;7.358;2023-03-20T01:39:35;7.00;99.90
37310;DHT22;23195;47.744;7.358;2023-03-20T01:42:02;7.00;99.90
37310;DHT22;23195;47.744;7.358;2023-03-20T01:44:33;7.00;99.90
37310;DHT22;23195;47.744;7.358;2023-03-20T01:47:01;7.00;99.90
37310;DHT22;23195;47.744;7.358;2023-03-20T01:51:53;7.00;99.90
37310;DHT22;23195;47.744;7.358;2023-03-20T01:54:31;7.00;99.90
37310;DHT22;23195;47.744;7.358;2023-03-20T01:59:40;7.00;99.90
37310;DHT22;23195;47.744;7.358;2023-03-20T02:02:08;6.90;99.90
37310;DHT22;23195;47.744;7.358;2023-03-20T02:04:38;6.90;99.90
37310;DHT22;23195;47.744;7.358;2023-03-20T02:07:07;6.90;99.90
37310;DHT22;23195;47.744;7.358;2023-03-20T02:09:33;6.90;99.90
37310;DHT22;23195;47.744;7.358;2023-03-20T02:11:59;6.90;99.90
37310;DHT22;23195;47.744;7.358;2023-03-20T02:14:26;6.80;99.90
37310;DHT22;23195;47.744;7.358;2023-03-20T02:16:52;6.80;99.90
37310;DHT22;23195;47.744;7.358;2023-03-20T02:19:44;6.90;99.90
37310;DHT22;23195;47.744;7.358;2023-03-20T02:22:27;6.90;99.90
37310;DHT22;23195;47.744;7.358;2023-03-20T02:30:19;6.90;99.90
37310;DHT22;23195;47.744;7.358;2023-03-20T02:33:14;6.90;99.90
37310;DHT22;23195;47.744;7.358;2023-03-20T02:36:10;7.00;99.90
37310;DHT22;23195;47.744;7.358;2023-03-20T02:41:41;7.00;99.90
37310;DHT22;23195;47.744;7.358;2023-03-20T02:46:58;7.20;99.90
37310;DHT22;23195;47.744;7.358;2023-03-20T02:58:07;7.40;99.90
37310;DHT22;23195;47.744;7.358;2023-03-20T03:03:21;7.50;99.90
37310;DHT22;23195;47.744;7.358;2023-03-20T03:06:05;7.60;99.90
37310;DHT22;23195;47.744;7.358;2023-03-20T03:08:35;7.60;99.90
37310;DHT22;23195;47.744;7.358;2023-03-20T03:11:05;7.70;99.90
37310;DHT22;23195;47.744;7.358;2023-03-20T03:13:35;8.00;99.90
37310;DHT22;23195;47.744;7.358;2023-03-20T03:16:09;7.80;99.90
37310;DHT22;23195;47.744;7.358;2023-03-20T03:18:37;7.80;99.90
37310;DHT22;23195;47.744;7.358;2023-03-20T03:21:05;7.80;99.90
37310;DHT22;23195;47.744;7.358;2023-03-20T03:23:41;7.80;99.90
37310;DHT22;23195;47.744;7.358;2023-03-20T03:26:14;7.90;99.90
37310;DHT22;23195;47.744;7.358;2023-03-20T03:28:47;7.90;99.90
37310;DHT22;23195;47.744;7.358;2023-03-20T03:31:15;7.90;99.90
37310;DHT22;23195;47.744;7.358;2023-03-20T03:33:48;7.90;99.90
37310;DHT22;23195;47.744;7.358;2023-03-20T03:36:21;7.90;99.90
37310;DHT22;23195;47.744;7.358;2023-03-20T03:42:06;7.90;99.90
37310;DHT22;23195;47.744;7.358;2023-03-20T03:45:11;8.10;99.90
37310;DHT22;23195;47.744;7.358;2023-03-20T03:50:49;8.00;99.90
37310;DHT22;23195;47.744;7.358;2023-03-20T03:56:38;7.90;99.90
37310;DHT22;23195;47.744;7.358;2023-03-20T03:59:11;7.90;99.90
37310;DHT22;23195;47.744;7.358;2023-03-20T04:01:39;8.00;99.90
37310;DHT22;23195;47.744;7.358;2023-03-20T04:04:09;8.00;99.90
37310;DHT22;23195;47.744;7.358;2023-03-20T04:06:38;8.00;99.90
37310;DHT22;23195;47.744;7.358;2023-03-20T04:09:03;8.00;99.90
37310;DHT22;23195;47.744;7.358;2023-03-20T04:11:29;8.10;99.90
37310;DHT22;23195;47.744;7.358;2023-03-20T04:13:55;8.10;99.90
37310;DHT22;23195;47.744;7.358;2023-03-20T04:16:22;8.30;99.90
37310;DHT22;23195;47.744;7.358;2023-03-20T04:18:48;8.10;99.90
37310;DHT22;23195;47.744;7.358;2023-03-20T04:21:14;8.10;99.90
37310;DHT22;23195;47.744;7.358;2023-03-20T04:23:41;8.10;99.90
37310;DHT22;23195;47.744;7.358;2023-03-20T04:26:07;8.10;99.90
37310;DHT22;23195;47.744;7.358;2023-03-20T04:28:33;8.10;99.90
37310;DHT22;23195;47.744;7.358;2023-03-20T04:30:59;8.10;99.90
37310;DHT22;23195;47.744;7.358;2023-03-20T04:33:29;8.20;99.90
37310;DHT22;23195;47.744;7.358;2023-03-20T04:35:55;8.20;99.90
37310;DHT22;23195;47.744;7.358;2023-03-20T04:38:22;8.20;99.90
37310;DHT22;23195;47.744;7.358;2023-03-20T04:40:48;8.20;99.90
37310;DHT22;23195;47.744;7.358;2023-03-20T04:43:15;8.20;99.90
37310;DHT22;23195;47.744;7.358;2023-03-20T04:45:40;8.20;99.90
37310;DHT22;23195;47.744;7.358;2023-03-20T04:48:07;8.20;99.90
37310;DHT22;23195;47.744;7.358;2023-03-20T04:50:32;8.20;99.90
37310;DHT22;23195;47.744;7.358;2023-03-20T04:52:58;8.30;99.90
37310;DHT22;23195;47.744;7.358;2023-03-20T04:55:24;8.20;99.90
37310;DHT22;23195;47.744;7.358;2023-03-20T04:57:50;8.20;99.90
37310;DHT22;23195;47.744;7.358;2023-03-20T05:00:19;8.20;99.90
37310;DHT22;23195;47.744;7.358;2023-03-20T05:02:45;8.20;99.90
37310;DHT22;23195;47.744;7.358;2023-03-20T05:05:11;8.20;99.90
37310;DHT22;23195;47.744;7.358;2023-03-20T05:07:37;8.20;99.90
37310;DHT22;23195;47.744;7.358;2023-03-20T05:10:04;8.30;99.90
37310;DHT22;23195;47.744;7.358;2023-03-20T05:12:30;8.20;99.90
37310;DHT22;23195;47.744;7.358;2023-03-20T05:14:59;8.30;99.90
37310;DHT22;23195;47.744;7.358;2023-03-20T05:17:24;8.40;99.90
37310;DHT22;23195;47.744;7.358;2023-03-20T05:19:50;8.40;99.90
37310;DHT22;23195;47.744;7.358;2023-03-20T05:22:17;8.30;99.90
37310;DHT22;23195;47.744;7.358;2023-03-20T05:24:45;8.40;99.90
37310;DHT22;23195;47.744;7.358;2023-03-20T05:27:11;8.40;99.90
37310;DHT22;23195;47.744;7.358;2023-03-20T05:29:37;8.40;99.90
37310;DHT22;23195;47.744;7.358;2023-03-20T05:32:03;8.30;99.90
37310;DHT22;23195;47.744;7.358;2023-03-20T05:34:32;8.40;99.90
37310;DHT22;23195;47.744;7.358;2023-03-20T05:36:57;8.40;99.90
37310;DHT22;23195;47.744;7.358;2023-03-20T05:39:23;8.40;99.90
37310;DHT22;23195;47.744;7.358;2023-03-20T05:41:49;8.40;99.90
37310;DHT22;23195;47.744;7.358;2023-03-20T05:44:15;8.40;99.90
37310;DHT22;23195;47.744;7.358;2023-03-20T05:46:41;8.50;99.90
37310;DHT22;23195;47.744;7.358;2023-03-20T05:49:07;8.40;99.90
37310;DHT22;23195;47.744;7.358;2023-03-20T05:51:33;8.40;99.90
37310;DHT22;23195;47.744;7.358;2023-03-20T05:53:58;8.40;99.90
37310;DHT22;23195;47.744;7.358;2023-03-20T05:56:24;8.50;99.90
37310;DHT22;23195;47.744;7.358;2023-03-20T05:58:50;8.50;99.90
37310;DHT22;23195;47.744;7.358;2023-03-20T06:01:19;8.50;99.90
37310;DHT22;23195;47.744;7.358;2023-03-20T06:03:47;8.50;99.90
37310;DHT22;23195;47.744;7.358;2023-03-20T06:06:14;8.60;99.90
37310;DHT22;23195;47.744;7.358;2023-03-20T06:08:40;7.30;99.90
37310;DHT22;23195;47.744;7.358;2023-03-20T06:11:06;8.70;99.90
37310;DHT22;23195;47.744;7.358;2023-03-20T06:13:32;8.70;99.90
37310;DHT22;23195;47.744;7.358;2023-03-20T06:15:58;8.80;99.90
37310;DHT22;23195;47.744;7.358;2023-03-20T06:18:24;8.90;99.90
37310;DHT22;23195;47.744;7.358;2023-03-20T06:20:54;8.90;99.90
37310;DHT22;23195;47.744;7.358;2023-03-20T06:23:21;8.90;99.90
37310;DHT22;23195;47.744;7.358;2023-03-20T06:25:47;7.60;99.90
37310;DHT22;23195;47.744;7.358;2023-03-20T06:28:13;9.00;99.90
37310;DHT22;23195;47.744;7.358;2023-03-20T06:30:40;9.10;99.90
37310;DHT22;23195;47.744;7.358;2023-03-20T06:33:06;9.20;99.90
37310;DHT22;23195;47.744;7.358;2023-03-20T06:35:35;9.30;99.90
37310;DHT22;23195;47.744;7.358;2023-03-20T06:38:04;9.30;99.90
37310;DHT22;23195;47.744;7.358;2023-03-20T06:40:33;8.90;99.90
37310;DHT22;23195;47.744;7.358;2023-03-20T06:43:01;9.40;99.90
37310;DHT22;23195;47.744;7.358;2023-03-20T06:45:29;9.40;99.90
37310;DHT22;23195;47.744;7.358;2023-03-20T06:47:55;9.30;99.90
37310;DHT22;23195;47.744;7.358;2023-03-20T06:50:21;9.40;99.90
37310;DHT22;23195;47.744;7.358;2023-03-20T06:52:47;9.60;99.90
37310;DHT22;23195;47.744;7.358;2023-03-20T06:55:13;9.40;99.90
37310;DHT22;23195;47.744;7.358;2023-03-20T06:57:39;9.60;99.90
37310;DHT22;23195;47.744;7.358;2023-03-20T07:00:05;9.70;99.90
37310;DHT22;23195;47.744;7.358;2023-03-20T07:02:40;9.70;99.90
37310;DHT22;23195;47.744;7.358;2023-03-20T07:05:11;9.40;99.90
37310;DHT22;23195;47.744;7.358;2023-03-20T07:07:58;9.80;99.90
37310;DHT22;23195;47.744;7.358;2023-03-20T07:10:32;9.80;99.90
37310;DHT22;23195;47.744;7.358;2023-03-20T07:13:22;9.80;99.90
37310;DHT22;23195;47.744;7.358;2023-03-20T07:16:08;9.80;99.90
37310;DHT22;23195;47.744;7.358;2023-03-20T07:21:44;9.80;99.90
37310;DHT22;23195;47.744;7.358;2023-03-20T07:24:10;9.70;99.90
37310;DHT22;23195;47.744;7.358;2023-03-20T07:26:36;9.70;99.90
37310;DHT22;23195;47.744;7.358;2023-03-20T07:29:03;9.70;99.90
37310;DHT22;23195;47.744;7.358;2023-03-20T07:31:28;9.80;99.90
37310;DHT22;23195;47.744;7.358;2023-03-20T07:33:55;9.90;99.90
37310;DHT22;23195;47.744;7.358;2023-03-20T07:36:21;9.90;99.90
37310;DHT22;23195;47.744;7.358;2023-03-20T07:38:47;10.00;99.90
37310;DHT22;23195;47.744;7.358;2023-03-20T07:41:13;9.90;99.90
37310;DHT22;23195;47.744;7.358;2023-03-20T07:43:39;10.00;99.90
37310;DHT22;23195;47.744;7.358;2023-03-20T07:46:06;10.10;99.90
37310;DHT22;23195;47.744;7.358;2023-03-20T07:48:33;10.20;99.90
37310;DHT22;23195;47.744;7.358;2023-03-20T07:50:59;10.10;99.90
37310;DHT22;23195;47.744;7.358;2023-03-20T07:53:25;10.20;99.90
37310;DHT22;23195;47.744;7.358;2023-03-20T07:55:51;10.30;99.90
37310;DHT22;23195;47.744;7.358;2023-03-20T07:58:16;10.40;99.90
37310;DHT22;23195;47.744;7.358;2023-03-20T08:00:43;10.40;99.90
37310;DHT22;23195;47.744;7.358;2023-03-20T08:03:09;10.60;99.90
37310;DHT22;23195;47.744;7.358;2023-03-20T08:05:35;10.70;99.90
37310;DHT22;23195;47.744;7.358;2023-03-20T08:08:01;10.80;99.90
37310;DHT22;23195;47.744;7.358;2023-03-20T08:10:27;10.90;99.90
37310;DHT22;23195;47.744;7.358;2023-03-20T08:12:53;10.90;99.90
37310;DHT22;23195;47.744;7.358;2023-03-20T08:15:22;11.00;99.90
37310;DHT22;23195;47.744;7.358;2023-03-20T08:17:48;11.10;99.90
37310;DHT22;23195;47.744;7.358;2023-03-20T08:20:17;11.10;99.90
37310;DHT22;23195;47.744;7.358;2023-03-20T08:22:44;11.30;99.90
37310;DHT22;23195;47.744;7.358;2023-03-20T08:25:10;11.20;99.90
37310;DHT22;23195;47.744;7.358;2023-03-20T08:27:36;11.10;99.90
37310;DHT22;23195;47.744;7.358;2023-03-20T08:30:03;11.20;99.90
37310;DHT22;23195;47.744;7.358;2023-03-20T08:32:29;11.40;99.90
37310;DHT22;23195;47.744;7.358;2023-03-20T08:34:55;11.60;99.90
37310;DHT22;23195;47.744;7.358;2023-03-20T08:37:21;11.70;99.90
37310;DHT22;23195;47.744;7.358;2023-03-20T08:39:48;11.80;99.90
37310;DHT22;23195;47.744;7.358;2023-03-20T08:42:14;12.40;99.90
37310;DHT22;23195;47.744;7.358;2023-03-20T08:44:40;12.90;99.90
37310;DHT22;23195;47.744;7.358;2023-03-20T08:47:06;13.40;99.90
37310;DHT22;23195;47.744;7.358;2023-03-20T08:49:35;13.80;99.90
37310;DHT22;23195;47.744;7.358;2023-03-20T08:52:01;14.40;99.90
37310;DHT22;23195;47.744;7.358;2023-03-20T08:54:27;14.70;99.90
37310;DHT22;23195;47.744;7.358;2023-03-20T08:56:53;14.70;99.90
37310;DHT22;23195;47.744;7.358;2023-03-20T08:59:19;14.50;99.90
37310;DHT22;23195;47.744;7.358;2023-03-20T09:01:45;14.50;99.90
37310;DHT22;23195;47.744;7.358;2023-03-20T09:04:12;14.40;99.90
37310;DHT22;23195;47.744;7.358;2023-03-20T09:06:38;14.20;99.90
37310;DHT22;23195;47.744;7.358;2023-03-20T09:09:04;14.20;99.90
37310;DHT22;23195;47.744;7.358;2023-03-20T09:11:33;14.40;99.90
37310;DHT22;23195;47.744;7.358;2023-03-20T09:14:02;14.30;99.90
37310;DHT22;23195;47.744;7.358;2023-03-20T09:16:31;14.10;99.90
37310;DHT22;23195;47.744;7.358;2023-03-20T09:18:59;14.50;99.90
37310;DHT22;23195;47.744;7.358;2023-03-20T09:21:25;14.50;99.90
37310;DHT22;23195;47.744;7.358;2023-03-20T09:23:51;14.60;99.90
37310;DHT22;23195;47.744;7.358;2023-03-20T09:26:17;14.70;99.90
37310;DHT22;23195;47.744;7.358;2023-03-20T09:28:45;14.70;99.90
37310;DHT22;23195;47.744;7.358;2023-03-20T09:31:13;14.60;99.90
37310;DHT22;23195;47.744;7.358;2023-03-20T09:33:39;14.50;99.90
37310;DHT22;23195;47.744;7.358;2023-03-20T09:36:06;14.40;99.90
37310;DHT22;23195;47.744;7.358;2023-03-20T09:38:32;14.50;99.90
37310;DHT22;23195;47.744;7.358;2023-03-20T09:41:04;14.80;99.90
37310;DHT22;23195;47.744;7.358;2023-03-20T09:43:43;15.00;99.90
37310;DHT22;23195;47.744;7.358;2023-03-20T09:51:51;14.50;99.90
37310;DHT22;23195;47.744;7.358;2023-03-20T09:54:23;14.30;99.90
37310;DHT22;23195;47.744;7.358;2023-03-20T09:56:51;14.10;99.90
37310;DHT22;23195;47.744;7.358;2023-03-20T09:59:18;14.00;99.90
37310;DHT22;23195;47.744;7.358;2023-03-20T10:01:50;14.00;99.90
37310;DHT22;23195;47.744;7.358;2023-03-20T10:04:19;14.00;99.90
37310;DHT22;23195;47.744;7.358;2023-03-20T10:06:46;14.00;99.90
37310;DHT22;23195;47.744;7.358;2023-03-20T10:09:20;13.90;99.90
37310;DHT22;23195;47.744;7.358;2023-03-20T10:15:19;14.00;99.90
37310;DHT22;23195;47.744;7.358;2023-03-20T10:17:50;14.00;99.90
37310;DHT22;23195;47.744;7.358;2023-03-20T10:20:32;14.20;99.90
37310;DHT22;23195;47.744;7.358;2023-03-20T10:23:19;14.20;99.90
37310;DHT22;23195;47.744;7.358;2023-03-20T10:25:58;14.40;99.90
37310;DHT22;23195;47.744;7.358;2023-03-20T10:28:54;14.20;99.90
37310;DHT22;23195;47.744;7.358;2023-03-20T10:42:34;14.70;98.70
37310;DHT22;23195;47.744;7.358;2023-03-20T10:47:50;15.60;97.60
37310;DHT22;23195;47.744;7.358;2023-03-20T10:50:28;15.60;96.80
37310;DHT22;23195;47.744;7.358;2023-03-20T10:52:57;15.70;97.60
37310;DHT22;23195;47.744;7.358;2023-03-20T10:55:27;15.90;97.80
37310;DHT22;23195;47.744;7.358;2023-03-20T10:58:03;15.90;96.90
37310;DHT22;23195;47.744;7.358;2023-03-20T11:00:36;15.80;96.00
37310;DHT22;23195;47.744;7.358;2023-03-20T11:03:04;15.60;96.60
37310;DHT22;23195;47.744;7.358;2023-03-20T11:05:34;15.70;95.50
37310;DHT22;23195;47.744;7.358;2023-03-20T11:08:14;15.60;96.20
37310;DHT22;23195;47.744;7.358;2023-03-20T11:10:41;15.60;96.10
37310;DHT22;23195;47.744;7.358;2023-03-20T11:13:30;15.60;96.10
37310;DHT22;23195;47.744;7.358;2023-03-20T11:16:15;15.70;96.00
37310;DHT22;23195;47.744;7.358;2023-03-20T11:18:45;15.60;96.30
37310;DHT22;23195;47.744;7.358;2023-03-20T11:21:28;15.50;96.60
37310;DHT22;23195;47.744;7.358;2023-03-20T11:24:03;15.60;97.00
37310;DHT22;23195;47.744;7.358;2023-03-20T11:26:38;15.70;96.50
37310;DHT22;23195;47.744;7.358;2023-03-20T11:29:15;15.70;96.30
37310;DHT22;23195;47.744;7.358;2023-03-20T11:31:45;15.60;96.40
37310;DHT22;23195;47.744;7.358;2023-03-20T11:34:22;15.70;96.80
37310;DHT22;23195;47.744;7.358;2023-03-20T11:37:00;15.70;97.00
37310;DHT22;23195;47.744;7.358;2023-03-20T11:39:33;15.80;96.60
37310;DHT22;23195;47.744;7.358;2023-03-20T11:42:22;15.70;95.10
37310;DHT22;23195;47.744;7.358;2023-03-20T11:45:03;15.90;95.10
37310;DHT22;23195;47.744;7.358;2023-03-20T11:47:34;16.00;94.30
37310;DHT22;23195;47.744;7.358;2023-03-20T11:56:23;16.00;94.40
37310;DHT22;23195;47.744;7.358;2023-03-20T11:59:03;16.00;94.30
37310;DHT22;23195;47.744;7.358;2023-03-20T12:02:18;16.00;94.20
37310;DHT22;23195;47.744;7.358;2023-03-20T12:04:46;16.10;93.70
37310;DHT22;23195;47.744;7.358;2023-03-20T12:11:19;15.80;93.10
37310;DHT22;23195;47.744;7.358;2023-03-20T12:13:51;15.90;93.70
37310;DHT22;23195;47.744;7.358;2023-03-20T12:16:23;15.90;93.90
37310;DHT22;23195;47.744;7.358;2023-03-20T12:19:03;15.90;93.30
37310;DHT22;23195;47.744;7.358;2023-03-20T12:21:59;15.80;93.80
37310;DHT22;23195;47.744;7.358;2023-03-20T12:25:19;15.90;93.60
37310;DHT22;23195;47.744;7.358;2023-03-20T12:28:00;15.90;93.70
37310;DHT22;23195;47.744;7.358;2023-03-20T12:33:28;15.90;92.60
37310;DHT22;23195;47.744;7.358;2023-03-20T12:36:10;15.90;93.10
37310;DHT22;23195;47.744;7.358;2023-03-20T12:38:43;16.10;93.30
37310;DHT22;23195;47.744;7.358;2023-03-20T12:48:03;16.60;92.00
37310;DHT22;23195;47.744;7.358;2023-03-20T12:50:40;16.60;92.10
37310;DHT22;23195;47.744;7.358;2023-03-20T12:59:32;16.40;91.60
37310;DHT22;23195;47.744;7.358;2023-03-20T13:10:22;17.30;90.50
37310;DHT22;23195;47.744;7.358;2023-03-20T13:13:16;17.00;90.20
37310;DHT22;23195;47.744;7.358;2023-03-20T13:21:17;16.80;89.20
37310;DHT22;23195;47.744;7.358;2023-03-20T13:24:21;17.00;90.30
37310;DHT22;23195;47.744;7.358;2023-03-20T13:29:52;16.80;89.70
37310;DHT22;23195;47.744;7.358;2023-03-20T13:32:56;16.70;90.20
37310;DHT22;23195;47.744;7.358;2023-03-20T13:38:11;16.90;89.30
37310;DHT22;23195;47.744;7.358;2023-03-20T13:40:42;17.00;88.90
37310;DHT22;23195;47.744;7.358;2023-03-20T13:43:25;17.10;88.60
37310;DHT22;23195;47.744;7.358;2023-03-20T13:46:06;17.20;88.50
37310;DHT22;23195;47.744;7.358;2023-03-20T13:48:36;17.00;88.80
37310;DHT22;23195;47.744;7.358;2023-03-20T13:53:50;17.30;88.60
37310;DHT22;23195;47.744;7.358;2023-03-20T14:02:26;17.10;88.20
37310;DHT22;23195;47.744;7.358;2023-03-20T14:05:15;17.00;89.30
37310;DHT22;23195;47.744;7.358;2023-03-20T14:07:43;17.00;89.20
37310;DHT22;23195;47.744;7.358;2023-03-20T14:15:20;16.50;89.20
37310;DHT22;23195;47.744;7.358;2023-03-20T14:17:48;16.60;88.90
37310;DHT22;23195;47.744;7.358;2023-03-20T14:20:36;16.60;88.80
37310;DHT22;23195;47.744;7.358;2023-03-20T14:23:03;16.70;89.40
37310;DHT22;23195;47.744;7.358;2023-03-20T14:25:35;16.70;88.70
37310;DHT22;23195;47.744;7.358;2023-03-20T14:33:23;16.40;90.40
37310;DHT22;23195;47.744;7.358;2023-03-20T14:36:43;16.50;90.50
37310;DHT22;23195;47.744;7.358;2023-03-20T14:45:13;16.70;89.60
37310;DHT22;23195;47.744;7.358;2023-03-20T14:53:33;16.70;87.30
37310;DHT22;23195;47.744;7.358;2023-03-20T14:56:09;17.10;88.10
37310;DHT22;23195;47.744;7.358;2023-03-20T15:03:50;16.20;85.10
37310;DHT22;23195;47.744;7.358;2023-03-20T15:06:50;17.50;85.10
37310;DHT22;23195;47.744;7.358;2023-03-20T15:09:21;17.40;84.20
37310;DHT22;23195;47.744;7.358;2023-03-20T15:11:48;17.20;84.20
37310;DHT22;23195;47.744;7.358;2023-03-20T15:14:26;17.30;85.70
37310;DHT22;23195;47.744;7.358;2023-03-20T15:16:57;17.20;84.00
37310;DHT22;23195;47.744;7.358;2023-03-20T15:19:24;17.20;85.00
37310;DHT22;23195;47.744;7.358;2023-03-20T15:21:52;17.30;85.90
37310;DHT22;23195;47.744;7.358;2023-03-20T15:24:25;17.00;86.70
37310;DHT22;23195;47.744;7.358;2023-03-20T15:26:57;17.00;86.70
37310;DHT22;23195;47.744;7.358;2023-03-20T15:29:24;17.00;86.00
37310;DHT22;23195;47.744;7.358;2023-03-20T15:32:00;16.90;85.10
37310;DHT22;23195;47.744;7.358;2023-03-20T15:34:34;16.80;85.60
37310;DHT22;23195;47.744;7.358;2023-03-20T15:37:04;15.30;85.80
37310;DHT22;23195;47.744;7.358;2023-03-20T15:39:46;16.40;87.10
37310;DHT22;23195;47.744;7.358;2023-03-20T15:42:15;16.20;87.00
37310;DHT22;23195;47.744;7.358;2023-03-20T15:44:45;16.10;86.80
37310;DHT22;23195;47.744;7.358;2023-03-20T15:47:34;16.00;86.70
37310;DHT22;23195;47.744;7.358;2023-03-20T15:50:00;15.90;88.60
37310;DHT22;23195;47.744;7.358;2023-03-20T15:52:41;15.80;89.40
37310;DHT22;23195;47.744;7.358;2023-03-20T15:55:32;15.70;88.50
37310;DHT22;23195;47.744;7.358;2023-03-20T15:57:59;15.60;89.50
37310;DHT22;23195;47.744;7.358;2023-03-20T16:00:38;15.50;90.30
37310;DHT22;23195;47.744;7.358;2023-03-20T16:03:07;15.50;90.60
37310;DHT22;23195;47.744;7.358;2023-03-20T16:05:42;15.50;90.00
37310;DHT22;23195;47.744;7.358;2023-03-20T16:08:21;15.50;89.40
37310;DHT22;23195;47.744;7.358;2023-03-20T16:10:47;15.40;89.50
37310;DHT22;23195;47.744;7.358;2023-03-20T16:13:44;14.70;88.60
37310;DHT22;23195;47.744;7.358;2023-03-20T16:16:15;15.30;89.90
37310;DHT22;23195;47.744;7.358;2023-03-20T16:19:11;15.20;89.90
37310;DHT22;23195;47.744;7.358;2023-03-20T16:21:43;15.20;90.20
37310;DHT22;23195;47.744;7.358;2023-03-20T16:24:17;15.10;90.00
37310;DHT22;23195;47.744;7.358;2023-03-20T16:26:51;15.00;90.30
37310;DHT22;23195;47.744;7.358;2023-03-20T16:29:19;15.00;90.20
37310;DHT22;23195;47.744;7.358;2023-03-20T16:31:54;14.80;90.20
37310;DHT22;23195;47.744;7.358;2023-03-20T16:34:29;14.80;90.30
37310;DHT22;23195;47.744;7.358;2023-03-20T16:36:58;14.70;90.40
37310;DHT22;23195;47.744;7.358;2023-03-20T16:39:29;14.70;91.00
37310;DHT22;23195;47.744;7.358;2023-03-20T16:44:44;14.50;91.70
37310;DHT22;23195;47.744;7.358;2023-03-20T16:47:20;14.40;91.80
37310;DHT22;23195;47.744;7.358;2023-03-20T16:49:49;14.30;91.80
37310;DHT22;23195;47.744;7.358;2023-03-20T16:52:16;14.20;92.00
37310;DHT22;23195;47.744;7.358;2023-03-20T16:54:47;14.10;92.30
37310;DHT22;23195;47.744;7.358;2023-03-20T16:57:15;14.10;92.30
37310;DHT22;23195;47.744;7.358;2023-03-20T16:59:42;13.90;92.50
37310;DHT22;23195;47.744;7.358;2023-03-20T17:02:25;13.90;92.70
37310;DHT22;23195;47.744;7.358;2023-03-20T17:04:55;13.80;93.10
37310;DHT22;23195;47.744;7.358;2023-03-20T17:07:22;13.80;93.20
37310;DHT22;23195;47.744;7.358;2023-03-20T17:10:09;13.90;93.50
37310;DHT22;23195;47.744;7.358;2023-03-20T17:12:40;13.70;93.80
37310;DHT22;23195;47.744;7.358;2023-03-20T17:15:14;13.10;93.40
37310;DHT22;23195;47.744;7.358;2023-03-20T17:17:41;13.70;93.60
37310;DHT22;23195;47.744;7.358;2023-03-20T17:20:36;13.30;93.60
37310;DHT22;23195;47.744;7.358;2023-03-20T17:23:19;13.40;94.00
37310;DHT22;23195;47.744;7.358;2023-03-20T17:25:52;13.50;94.20
37310;DHT22;23195;47.744;7.358;2023-03-20T17:28:37;13.40;94.10
37310;DHT22;23195;47.744;7.358;2023-03-20T17:31:10;13.30;94.20
37310;DHT22;23195;47.744;7.358;2023-03-20T17:33:49;13.60;94.50
37310;DHT22;23195;47.744;7.358;2023-03-20T17:36:36;13.30;94.40
37310;DHT22;23195;47.744;7.358;2023-03-20T17:39:21;13.20;94.70
37310;DHT22;23195;47.744;7.358;2023-03-20T17:42:23;13.00;94.90
37310;DHT22;23195;47.744;7.358;2023-03-20T17:44:51;13.30;95.40
37310;DHT22;23195;47.744;7.358;2023-03-20T17:47:25;12.80;95.60
37310;DHT22;23195;47.744;7.358;2023-03-20T17:49:52;12.80;95.80
37310;DHT22;23195;47.744;7.358;2023-03-20T17:52:24;12.60;96.30
37310;DHT22;23195;47.744;7.358;2023-03-20T17:55:00;12.60;96.70
37310;DHT22;23195;47.744;7.358;2023-03-20T17:57:36;12.40;96.70
37310;DHT22;23195;47.744;7.358;2023-03-20T18:00:11;12.30;97.40
37310;DHT22;23195;47.744;7.358;2023-03-20T18:02:37;12.20;97.80
37310;DHT22;23195;47.744;7.358;2023-03-20T18:05:05;12.10;98.10
37310;DHT22;23195;47.744;7.358;2023-03-20T18:07:32;12.00;98.50
37310;DHT22;23195;47.744;7.358;2023-03-20T18:09:58;11.90;98.70
37310;DHT22;23195;47.744;7.358;2023-03-20T18:12:24;11.80;99.20
37310;DHT22;23195;47.744;7.358;2023-03-20T18:14:52;11.70;99.90
37310;DHT22;23195;47.744;7.358;2023-03-20T18:17:18;11.70;99.90
37310;DHT22;23195;47.744;7.358;2023-03-20T18:19:47;11.50;99.90
37310;DHT22;23195;47.744;7.358;2023-03-20T18:22:12;11.50;99.90
37310;DHT22;23195;47.744;7.358;2023-03-20T18:24:38;11.40;99.90
37310;DHT22;23195;47.744;7.358;2023-03-20T18:27:05;11.40;99.90
37310;DHT22;23195;47.744;7.358;2023-03-20T18:29:32;11.30;99.90
37310;DHT22;23195;47.744;7.358;2023-03-20T18:31:57;11.30;99.90
37310;DHT22;23195;47.744;7.358;2023-03-20T18:34:37;11.30;99.90